createdAt,value
2022-08-24T00:00:13.306Z,21.40
2022-08-24T00:02:44.622Z,21.30
2022-08-24T00:05:16.782Z,21.20
2022-08-24T00:07:49.672Z,21.10
2022-08-24T00:10:21.285Z,21.30
2022-08-24T00:12:52.313Z,21.20
2022-08-24T00:15:23.461Z,21.10
2022-08-24T00:17:54.325Z,21.00
2022-08-24T00:20:26.670Z,20.90
2022-08-24T00:22:57.665Z,20.70
2022-08-24T00:25:28.649Z,20.60
2022-08-24T00:28:00.200Z,20.60
2022-08-24T00:30:31.623Z,20.50
2022-08-24T00:33:03.096Z,20.40
2022-08-24T00:35:34.315Z,20.30
2022-08-24T00:38:05.527Z,20.30
2022-08-24T00:40:41.847Z,20.20
2022-08-24T00:43:13.620Z,20.10
2022-08-24T00:46:03.976Z,19.90
2022-08-24T00:48:41.674Z,19.90
2022-08-24T00:51:22.766Z,19.80
2022-08-24T00:54:05.402Z,19.80
2022-08-24T00:56:47.035Z,19.70
2022-08-24T00:59:34.654Z,19.70
2022-08-24T01:02:15.291Z,19.50
2022-08-24T01:04:54.785Z,19.50
2022-08-24T01:07:30.359Z,19.50
2022-08-24T01:10:07.975Z,19.40
2022-08-24T01:12:42.479Z,19.30
2022-08-24T01:15:35.191Z,19.30
2022-08-24T01:18:32.108Z,19.10
2022-08-24T01:21:16.326Z,19.00
2022-08-24T01:23:59.055Z,18.90
2022-08-24T01:26:44.266Z,18.80
2022-08-24T01:29:23.978Z,18.60
2022-08-24T01:31:56.441Z,18.70
2022-08-24T01:34:27.648Z,18.60
2022-08-24T01:37:00.266Z,18.50
2022-08-24T01:39:47.406Z,18.50
2022-08-24T01:42:18.595Z,18.50
2022-08-24T01:44:49.586Z,18.40
2022-08-24T01:47:20.987Z,18.40
2022-08-24T01:49:52.042Z,18.30
2022-08-24T01:52:29.703Z,18.30
2022-08-24T01:55:10.217Z,18.30
2022-08-24T01:57:41.229Z,18.30
2022-08-24T02:00:15.129Z,18.20
2022-08-24T02:02:46.687Z,18.30
2022-08-24T02:05:18.376Z,18.20
2022-08-24T02:07:49.381Z,18.10
2022-08-24T02:10:21.405Z,18.20
2022-08-24T02:12:58.872Z,18.20
2022-08-24T02:15:40.311Z,18.20
2022-08-24T02:18:14.928Z,18.20
2022-08-24T02:20:47.763Z,18.00
2022-08-24T02:23:19.773Z,18.00
2022-08-24T02:25:52.242Z,18.00
2022-08-24T02:28:23.394Z,17.90
2022-08-24T02:30:54.424Z,17.80
2022-08-24T02:33:25.908Z,17.70
2022-08-24T02:35:57.085Z,17.60
2022-08-24T02:38:28.861Z,17.50
2022-08-24T02:41:00.470Z,17.60
2022-08-24T02:43:31.764Z,17.60
2022-08-24T02:46:06.643Z,17.60
2022-08-24T02:48:44.647Z,17.60
2022-08-24T02:51:26.925Z,17.50
2022-08-24T02:54:03.006Z,17.60
2022-08-24T02:56:33.935Z,17.60
2022-08-24T02:59:04.882Z,17.60
2022-08-24T03:01:36.010Z,17.50
2022-08-24T03:04:07.508Z,17.50
2022-08-24T03:06:38.590Z,17.50
2022-08-24T03:09:09.641Z,17.50
2022-08-24T03:11:42.677Z,17.50
2022-08-24T03:14:18.300Z,17.50
2022-08-24T03:16:49.258Z,17.40
2022-08-24T03:19:20.320Z,17.40
2022-08-24T03:21:51.256Z,17.40
2022-08-24T03:24:23.450Z,17.30
2022-08-24T03:26:54.506Z,17.30
2022-08-24T03:29:25.413Z,17.30
2022-08-24T03:31:57.450Z,17.30
2022-08-24T03:34:30.283Z,17.30
2022-08-24T03:37:01.212Z,17.40
2022-08-24T03:39:32.652Z,17.50
2022-08-24T03:42:03.871Z,17.50
2022-08-24T03:44:35.144Z,17.60
2022-08-24T03:47:06.448Z,17.60
2022-08-24T03:49:40.219Z,17.60
2022-08-24T03:52:11.138Z,17.50
2022-08-24T03:54:42.139Z,17.50
2022-08-24T03:57:13.832Z,17.40
2022-08-24T03:59:46.659Z,17.50
2022-08-24T04:02:18.934Z,17.50
2022-08-24T04:04:50.502Z,17.50
2022-08-24T04:07:21.471Z,17.50
2022-08-24T04:09:52.478Z,17.50
2022-08-24T04:12:23.734Z,17.50
2022-08-24T04:14:56.120Z,17.50
2022-08-24T04:17:27.048Z,17.50
2022-08-24T04:19:58.673Z,17.60
2022-08-24T04:22:34.267Z,17.50
2022-08-24T04:25:09.199Z,17.60
2022-08-24T04:27:41.548Z,17.60
2022-08-24T04:30:14.540Z,17.70
2022-08-24T04:32:45.763Z,17.70
2022-08-24T04:35:16.741Z,17.70
2022-08-24T04:37:47.655Z,18.00
2022-08-24T04:40:19.385Z,18.20
2022-08-24T04:42:50.714Z,18.00
2022-08-24T04:45:21.662Z,18.10
2022-08-24T04:47:52.754Z,18.00
2022-08-24T04:50:24.791Z,18.10
2022-08-24T04:52:55.645Z,17.90
2022-08-24T04:55:26.711Z,18.10
2022-08-24T04:57:57.785Z,18.20
2022-08-24T05:00:28.754Z,18.30
2022-08-24T05:02:59.950Z,18.10
2022-08-24T05:05:31.149Z,18.10
2022-08-24T05:08:03.417Z,18.10
2022-08-24T05:10:35.338Z,18.00
2022-08-24T05:13:07.461Z,18.00
2022-08-24T05:15:46.780Z,18.00
2022-08-24T05:18:17.786Z,18.10
2022-08-24T05:20:48.812Z,18.20
2022-08-24T05:23:19.822Z,18.20
2022-08-24T05:25:50.788Z,18.30
2022-08-24T05:28:21.849Z,18.30
2022-08-24T05:30:57.323Z,18.40
2022-08-24T05:33:28.819Z,18.40
2022-08-24T05:35:59.771Z,18.50
2022-08-24T05:38:36.700Z,18.60
2022-08-24T05:41:07.672Z,18.60
2022-08-24T05:43:39.554Z,18.60
2022-08-24T05:46:10.828Z,18.60
2022-08-24T05:48:42.308Z,18.60
2022-08-24T05:51:14.162Z,18.60
2022-08-24T05:53:45.703Z,18.70
2022-08-24T05:56:19.508Z,18.90
2022-08-24T05:58:50.639Z,18.90
2022-08-24T06:01:27.129Z,19.00
2022-08-24T06:03:59.322Z,19.20
2022-08-24T06:06:31.009Z,19.10
2022-08-24T06:09:02.361Z,19.10
2022-08-24T06:11:39.511Z,19.20
2022-08-24T06:14:14.694Z,19.20
2022-08-24T06:16:47.574Z,19.20
2022-08-24T06:19:21.673Z,19.20
2022-08-24T06:21:53.453Z,19.30
2022-08-24T06:24:44.558Z,19.30
2022-08-24T06:27:22.833Z,19.50
2022-08-24T06:30:01.278Z,19.60
2022-08-24T06:32:32.267Z,19.70
2022-08-24T06:35:03.968Z,19.70
2022-08-24T06:37:34.859Z,19.90
2022-08-24T06:40:07.509Z,20.00
2022-08-24T06:42:38.465Z,20.00
2022-08-24T06:45:10.526Z,20.20
2022-08-24T06:47:42.370Z,20.20
2022-08-24T06:50:15.586Z,20.30
2022-08-24T06:52:47.067Z,20.40
2022-08-24T06:55:18.160Z,20.40
2022-08-24T06:57:52.254Z,20.50
2022-08-24T07:00:25.099Z,20.60
2022-08-24T07:02:56.178Z,20.60
2022-08-24T07:05:27.295Z,20.70
2022-08-24T07:07:59.815Z,20.80
2022-08-24T07:10:31.372Z,20.90
2022-08-24T07:13:02.432Z,21.10
2022-08-24T12:17:12.781Z,32.60
2022-08-24T12:20:33.923Z,32.70
2022-08-24T12:23:25.491Z,32.90
2022-08-24T12:26:10.570Z,32.70
2022-08-24T12:28:55.865Z,32.80
2022-08-24T12:32:10.841Z,32.90
2022-08-24T12:34:49.755Z,32.60
2022-08-24T12:37:53.661Z,32.50
2022-08-24T12:40:54.868Z,32.20
2022-08-24T12:43:42.810Z,32.30
2022-08-24T12:46:18.456Z,32.50
2022-08-24T12:49:17.236Z,32.70
2022-08-24T12:52:36.261Z,32.70
2022-08-24T12:55:19.821Z,32.60
2022-08-24T12:58:35.146Z,32.40
2022-08-24T13:01:09.436Z,32.40
2022-08-24T13:03:46.624Z,32.20
2022-08-24T13:06:29.125Z,32.20
2022-08-24T13:09:35.242Z,32.50
2022-08-24T13:12:46.676Z,32.50
2022-08-24T13:15:23.753Z,32.50
2022-08-24T13:18:02.999Z,32.90
2022-08-24T13:20:40.283Z,33.30
2022-08-24T13:23:14.500Z,33.40
2022-08-24T13:25:52.811Z,33.40
2022-08-24T13:28:23.672Z,33.40
2022-08-24T13:31:03.536Z,33.50
2022-08-24T13:34:03.184Z,33.70
2022-08-24T13:37:22.406Z,33.90
2022-08-24T13:40:27.912Z,34.10
2022-08-24T13:43:44.764Z,33.80
2022-08-24T13:46:40.168Z,34.10
2022-08-24T13:50:11.403Z,34.50
2022-08-24T13:53:27.259Z,34.90
2022-08-24T13:56:29.694Z,35.30
2022-08-24T13:59:16.583Z,35.10
2022-08-24T14:02:35.422Z,35.20
2022-08-24T14:05:38.403Z,35.00
2022-08-24T14:08:46.976Z,35.60
2022-08-24T14:11:56.114Z,35.10
2022-08-24T14:15:16.137Z,34.90
2022-08-24T14:17:56.938Z,34.70
2022-08-24T14:21:02.864Z,34.60
2022-08-24T14:24:45.782Z,34.80
2022-08-24T14:28:01.383Z,35.00
2022-08-24T14:30:33.872Z,35.00
2022-08-24T14:33:27.158Z,35.20
2022-08-24T14:36:02.234Z,35.50
2022-08-24T14:42:13.209Z,35.50
2022-08-24T14:45:07.300Z,35.40
2022-08-24T14:48:19.935Z,35.10
2022-08-24T14:52:07.619Z,35.10
2022-08-24T14:55:33.340Z,34.80
2022-08-24T14:58:28.893Z,34.40
2022-08-24T15:01:15.283Z,34.60
2022-08-24T15:04:14.946Z,34.50
2022-08-24T15:06:53.308Z,34.50
2022-08-24T15:09:38.682Z,34.70
2022-08-24T15:12:54.939Z,34.80
2022-08-24T15:15:55.399Z,35.00
2022-08-24T15:19:23.083Z,35.20
2022-08-24T15:22:06.968Z,35.30
2022-08-24T15:25:08.120Z,34.80
2022-08-24T15:27:55.960Z,34.80
2022-08-24T15:30:34.311Z,35.00
2022-08-24T15:33:19.535Z,34.80
2022-08-24T15:36:07.400Z,34.60
2022-08-24T15:38:40.714Z,34.10
2022-08-24T15:41:28.820Z,33.90
2022-08-24T15:44:21.568Z,34.20
2022-08-24T15:47:01.861Z,34.30
2022-08-24T15:50:06.680Z,34.40
2022-08-24T15:53:08.348Z,34.80
2022-08-24T15:55:47.192Z,35.00
2022-08-24T15:58:34.148Z,34.80
2022-08-24T16:01:30.191Z,34.50
2022-08-24T16:04:34.600Z,34.70
2022-08-24T16:07:05.687Z,34.80
2022-08-24T16:09:44.922Z,34.60
2022-08-24T16:12:32.585Z,34.30
2022-08-24T16:15:18.063Z,34.20
2022-08-24T16:17:54.748Z,34.30
2022-08-24T16:20:37.059Z,34.30
2022-08-24T16:23:41.841Z,34.60
2022-08-24T16:26:25.398Z,34.50
2022-08-24T16:29:05.571Z,34.30
2022-08-24T16:32:51.111Z,34.40
2022-08-24T16:35:27.953Z,34.30
2022-08-24T16:38:01.697Z,34.20
2022-08-24T16:40:33.927Z,34.50
2022-08-24T16:43:04.928Z,34.10
2022-08-24T16:45:37.042Z,34.00
2022-08-24T16:48:10.661Z,33.50
2022-08-24T16:50:42.105Z,33.50
2022-08-24T16:53:13.461Z,33.40
2022-08-24T16:55:44.502Z,33.40
2022-08-24T16:58:16.434Z,33.30
2022-08-24T17:00:47.479Z,32.60
2022-08-24T17:03:21.789Z,32.70
2022-08-24T17:05:52.897Z,32.60
2022-08-24T17:08:25.233Z,32.40
2022-08-24T17:10:56.544Z,32.60
2022-08-24T17:13:48.550Z,32.40
2022-08-24T17:16:23.904Z,32.40
2022-08-24T17:18:58.712Z,32.20
2022-08-24T17:21:29.797Z,32.20
2022-08-24T17:24:05.405Z,32.30
2022-08-24T17:26:37.298Z,32.20
2022-08-24T17:29:19.186Z,32.10
2022-08-24T17:31:52.777Z,32.20
2022-08-24T17:34:27.727Z,32.10
2022-08-24T17:36:59.779Z,31.80
2022-08-24T17:39:31.079Z,31.70
2022-08-24T17:42:03.607Z,31.50
2022-08-24T17:44:37.122Z,31.30
2022-08-24T17:47:42.398Z,31.20
2022-08-24T17:50:41.112Z,31.10
2022-08-24T17:53:15.198Z,30.70
2022-08-24T17:55:46.650Z,30.60
2022-08-24T17:58:18.750Z,30.40
2022-08-24T18:00:50.770Z,30.20
2022-08-24T18:03:22.838Z,30.00
2022-08-24T18:05:59.973Z,29.90
2022-08-24T18:08:31.147Z,29.80
2022-08-24T18:11:02.099Z,29.60
2022-08-24T18:13:33.217Z,29.50
2022-08-24T18:16:04.981Z,29.40
2022-08-24T18:18:36.959Z,29.40
2022-08-24T18:21:07.964Z,29.20
2022-08-24T18:23:43.371Z,29.10
2022-08-24T18:26:27.998Z,29.00
2022-08-24T18:29:09.206Z,28.90
2022-08-24T18:31:40.869Z,28.80
2022-08-24T18:34:18.900Z,28.70
2022-08-24T18:36:50.047Z,28.50
2022-08-24T18:39:21.286Z,28.40
2022-08-24T18:41:53.082Z,28.30
2022-08-24T18:44:27.219Z,28.20
2022-08-24T18:47:01.965Z,28.10
2022-08-24T18:49:33.011Z,28.00
2022-08-24T18:52:07.539Z,27.90
2022-08-24T18:54:44.802Z,27.70
2022-08-24T18:57:16.379Z,27.60
2022-08-24T18:59:49.256Z,27.60
2022-08-24T19:02:33.539Z,27.40
2022-08-24T19:05:18.979Z,27.40
2022-08-24T19:07:52.627Z,27.20
2022-08-24T19:10:27.638Z,27.20
2022-08-24T19:13:07.857Z,27.10
2022-08-24T19:15:39.934Z,27.00
2022-08-24T19:18:11.748Z,26.90
2022-08-24T19:20:49.180Z,26.90
2022-08-24T19:23:30.158Z,26.80
2022-08-24T19:26:02.830Z,26.70
2022-08-24T19:28:33.872Z,26.70
2022-08-24T19:31:12.249Z,26.60
2022-08-24T19:33:46.588Z,26.50
2022-08-24T19:36:22.357Z,26.40
2022-08-24T19:38:53.432Z,26.40
2022-08-24T19:41:36.539Z,26.40
2022-08-24T19:44:27.325Z,26.30
2022-08-24T19:46:59.439Z,26.20
2022-08-24T19:49:30.832Z,26.00
2022-08-24T19:52:03.186Z,26.00
2022-08-24T19:54:39.282Z,26.00
2022-08-24T19:57:41.706Z,25.90
2022-08-24T20:00:18.466Z,25.80
2022-08-24T20:02:52.710Z,25.80
2022-08-24T20:05:28.303Z,25.70
2022-08-24T20:08:00.627Z,25.70
2022-08-24T20:10:33.908Z,25.60
2022-08-24T20:13:05.256Z,25.60
2022-08-24T20:15:36.356Z,25.60
2022-08-24T20:18:08.014Z,25.60
2022-08-24T20:20:38.984Z,25.60
2022-08-24T20:23:10.084Z,25.60
2022-08-24T20:25:41.245Z,25.60
2022-08-24T20:28:28.660Z,25.60
2022-08-24T20:31:00.725Z,25.60
2022-08-24T20:33:31.901Z,25.50
2022-08-24T20:36:03.271Z,25.50
2022-08-24T20:38:35.037Z,25.40
2022-08-24T20:41:06.103Z,25.30
2022-08-24T20:43:36.977Z,25.30
2022-08-24T20:46:09.491Z,25.20
2022-08-24T20:48:43.161Z,25.10
2022-08-24T20:51:14.465Z,25.10
2022-08-24T20:53:45.810Z,25.00
2022-08-24T20:56:28.715Z,24.90
2022-08-24T20:59:06.943Z,24.90
2022-08-24T21:01:41.718Z,24.80
2022-08-24T21:04:13.146Z,24.80
2022-08-24T21:06:45.189Z,24.80
2022-08-24T21:09:16.632Z,24.90
2022-08-24T21:11:47.607Z,24.80
2022-08-24T21:14:19.990Z,24.80
2022-08-24T21:16:59.152Z,24.70
2022-08-24T21:19:30.758Z,24.70
2022-08-24T21:22:01.718Z,24.80
2022-08-24T21:24:32.705Z,24.70
2022-08-24T21:27:06.182Z,24.50
2022-08-24T21:29:37.107Z,24.40
2022-08-24T21:32:26.574Z,24.40
2022-08-24T21:34:57.489Z,24.30
2022-08-24T21:37:29.054Z,24.20
2022-08-24T21:40:00.292Z,24.20
2022-08-24T21:42:31.416Z,24.10
2022-08-24T21:45:05.352Z,24.10
2022-08-24T21:47:36.307Z,24.00
2022-08-24T21:50:09.380Z,23.90
2022-08-24T21:52:41.528Z,23.90
2022-08-24T21:55:15.148Z,23.80
2022-08-24T21:57:46.137Z,23.70
2022-08-24T22:00:19.346Z,23.70
2022-08-24T22:02:50.396Z,23.70
2022-08-24T22:05:21.409Z,23.50
2022-08-24T22:07:52.330Z,23.50
2022-08-24T22:10:23.547Z,23.50
2022-08-24T22:12:54.830Z,23.40
2022-08-24T22:15:25.754Z,23.30
2022-08-24T22:17:56.813Z,23.20
2022-08-24T22:20:27.809Z,23.10
2022-08-24T22:22:58.975Z,23.10
2022-08-24T22:25:30.074Z,23.00
2022-08-24T22:28:01.014Z,22.90
2022-08-24T22:30:33.752Z,22.90
2022-08-24T22:33:05.221Z,22.80
2022-08-24T22:35:45.455Z,22.80
2022-08-24T22:38:16.549Z,22.80
2022-08-24T22:40:54.592Z,22.80
2022-08-24T22:43:45.467Z,22.80
2022-08-24T22:46:16.483Z,22.80
2022-08-24T22:48:47.399Z,22.80
2022-08-24T22:51:18.900Z,22.70
2022-08-24T22:53:49.949Z,22.70
2022-08-24T22:56:24.649Z,22.70
2022-08-24T22:58:56.790Z,22.60
2022-08-24T23:01:40.310Z,22.60
2022-08-24T23:04:16.628Z,22.60
2022-08-24T23:06:47.987Z,22.60
2022-08-24T23:09:19.100Z,22.50
2022-08-24T23:11:52.369Z,22.50
2022-08-24T23:14:24.895Z,22.50
2022-08-24T23:16:56.044Z,22.40
2022-08-24T23:19:45.982Z,22.40
2022-08-24T23:22:19.721Z,22.30
2022-08-24T23:24:50.745Z,22.30
2022-08-24T23:27:21.858Z,22.30
2022-08-24T23:29:53.150Z,22.20
2022-08-24T23:32:24.113Z,22.20
2022-08-24T23:34:58.966Z,22.20
2022-08-24T23:37:32.085Z,22.10
2022-08-24T23:40:04.308Z,22.10
2022-08-24T23:42:35.304Z,22.10
2022-08-24T23:45:08.790Z,22.10
2022-08-24T23:47:42.822Z,22.00
2022-08-24T23:50:13.903Z,22.10
2022-08-24T23:52:45.066Z,22.10
2022-08-24T23:55:21.120Z,22.00
2022-08-24T23:57:54.647Z,21.90
